Time;durP1;ratioP1;P1;durP2;ratioP2;P2;SDS_P1;SDS_P2;PMS_P1;PMS_P2;Temp;Humidity;BMP_temperature;BMP_pressure;BME280_temperature;BME280_humidity;BME280_pressure;Samples;Min_cycle;Max_cycle;Signal;HPM_P1;HPM_P2
2020/12/28 00:04:43;;;;;;;0.77;0.63;;;;;;;;;;10163745;29;20056;-69
2020/12/28 00:09:44;;;;;;;0.20;0.20;;;;;;;;;;10163606;29;20087;-68
2020/12/28 00:14:47;;;;;;;0.40;0.40;;;;;;;;;;10166060;29;20056;-69
2020/12/28 00:19:49;;;;;;;0.30;0.30;;;;;;;;;;10177928;29;20052;-69
2020/12/28 00:24:50;;;;;;;0.60;0.60;;;;;;;;;;10171090;29;20070;-69
2020/12/28 00:29:53;;;;;;;0.20;0.20;;;;;;;;;;10172943;29;20054;-68
2020/12/28 00:34:54;;;;;;;0.30;0.30;;;;;;;;;;10168124;29;20059;-68
2020/12/28 00:39:56;;;;;;;0.30;0.30;;;;;;;;;;10166719;29;20056;-68
2020/12/28 00:44:59;;;;;;;1.50;1.07;;;;;;;;;;10169769;29;20048;-68
2020/12/28 00:50:01;;;;;;;0.20;0.20;;;;;;;;;;10172679;29;20819;-69
2020/12/28 00:55:03;;;;;;;0.73;0.73;;;;;;;;;;10175094;29;20052;-69
2020/12/28 01:00:06;;;;;;;0.50;0.50;;;;;;;;;;10173216;29;20465;-69
2020/12/28 01:05:08;;;;;;;0.57;0.57;;;;;;;;;;10169798;29;20067;-68
2020/12/28 01:10:10;;;;;;;1.63;0.88;;;;;;;;;;10182780;29;20138;-68
2020/12/28 01:15:12;;;;;;;1.20;1.08;;;;;;;;;;10184795;29;20131;-67
2020/12/28 01:20:14;;;;;;;0.73;0.73;;;;;;;;;;10174243;29;20142;-68
2020/12/28 01:25:16;;;;;;;0.30;0.30;;;;;;;;;;10191039;29;20146;-69
2020/12/28 01:30:18;;;;;;;0.33;0.33;;;;;;;;;;10171015;29;20131;-68
2020/12/28 01:35:20;;;;;;;1.05;1.05;;;;;;;;;;10177250;29;20079;-68
2020/12/28 01:40:22;;;;;;;0.93;0.93;;;;;;;;;;10185039;29;20051;-69
2020/12/28 01:45:24;;;;;;;3.20;2.17;;;;;;;;;;10175850;29;20083;-68
2020/12/28 01:50:26;;;;;;;1.83;1.73;;;;;;;;;;10187695;29;20135;-68
2020/12/28 01:55:28;;;;;;;0.63;0.63;;;;;;;;;;10176481;29;20139;-69
2020/12/28 02:00:30;;;;;;;1.13;1.03;;;;;;;;;;10179746;29;20500;-68
2020/12/28 02:05:32;;;;;;;0.40;0.40;;;;;;;;;;10166857;29;20059;-69
2020/12/28 02:10:34;;;;;;;3.63;3.33;;;;;;;;;;10175080;29;20051;-71
2020/12/28 02:15:36;;;;;;;0.30;0.30;;;;;;;;;;10174085;29;20044;-70
2020/12/28 02:20:38;;;;;;;0.30;0.30;;;;;;;;;;10169862;29;20462;-70
2020/12/28 02:25:41;;;;;;;0.30;0.30;;;;;;;;;;10167299;29;20048;-70
2020/12/28 02:30:42;;;;;;;2.30;2.20;;;;;;;;;;10169540;29;20508;-71
2020/12/28 02:35:44;;;;;;;0.50;0.50;;;;;;;;;;10170189;29;20044;-71
2020/12/28 02:40:47;;;;;;;0.77;0.77;;;;;;;;;;10173280;29;20075;-71
2020/12/28 02:45:48;;;;;;;0.50;0.50;;;;;;;;;;10170750;29;20151;-71
2020/12/28 02:50:50;;;;;;;0.30;0.30;;;;;;;;;;10169466;29;20052;-71
2020/12/28 02:55:52;;;;;;;0.30;0.30;;;;;;;;;;10171594;29;20066;-72
2020/12/28 03:00:54;;;;;;;0.50;0.50;;;;;;;;;;10172102;29;20044;-71
2020/12/28 03:05:56;;;;;;;0.30;0.30;;;;;;;;;;10169946;29;20559;-71
2020/12/28 03:10:58;;;;;;;0.30;0.30;;;;;;;;;;10170550;29;20040;-71
2020/12/28 03:16:00;;;;;;;0.20;0.20;;;;;;;;;;10169189;29;20075;-69
2020/12/28 03:21:02;;;;;;;0.27;0.27;;;;;;;;;;10169580;29;20465;-69
2020/12/28 03:26:04;;;;;;;0.40;0.40;;;;;;;;;;10169146;29;20155;-69
2020/12/28 03:31:06;;;;;;;0.93;0.93;;;;;;;;;;10169452;29;20493;-69
2020/12/28 03:36:08;;;;;;;1.02;1.02;;;;;;;;;;10168369;29;20553;-69
2020/12/28 03:41:13;;;;;;;0.30;0.30;;;;;;;;;;10168769;29;20142;-69
2020/12/28 03:46:15;;;;;;;0.30;0.30;;;;;;;;;;10168196;29;20773;-68
2020/12/28 03:51:16;;;;;;;0.93;0.93;;;;;;;;;;10169206;29;20087;-69
2020/12/28 03:56:19;;;;;;;0.40;0.40;;;;;;;;;;10177745;29;20469;-69
2020/12/28 04:01:21;;;;;;;0.40;0.40;;;;;;;;;;10181912;29;20059;-68
2020/12/28 04:06:22;;;;;;;0.47;0.47;;;;;;;;;;10183409;29;20134;-69
2020/12/28 04:11:25;;;;;;;0.40;0.40;;;;;;;;;;10176662;29;20060;-69
2020/12/28 04:16:27;;;;;;;0.33;0.33;;;;;;;;;;10184399;29;20496;-70
2020/12/28 04:21:28;;;;;;;0.33;0.33;;;;;;;;;;10175610;29;20056;-69
2020/12/28 04:26:31;;;;;;;0.30;0.30;;;;;;;;;;10172702;29;20706;-70
2020/12/28 04:31:33;;;;;;;0.30;0.30;;;;;;;;;;10173390;29;20516;-69
2020/12/28 04:36:36;;;;;;;0.47;0.47;;;;;;;;;;10171066;29;20054;-69
2020/12/28 04:41:38;;;;;;;;;;;;;;;;;;10180511;29;20060;-69
2020/12/28 04:46:41;;;;;;;0.70;0.70;;;;;;;;;;10171507;29;20255;-69
2020/12/28 04:51:43;;;;;;;0.50;0.50;;;;;;;;;;10175057;29;20726;-69
2020/12/28 04:56:45;;;;;;;0.67;0.67;;;;;;;;;;10183836;29;20135;-69
2020/12/28 05:01:54;;;;;;;0.40;0.40;;;;;;;;;;10178523;29;20056;-69
2020/12/28 05:06:59;;;;;;;0.40;0.40;;;;;;;;;;10179139;29;20158;-68
2020/12/28 05:12:02;;;;;;;0.68;0.68;;;;;;;;;;10183059;29;20052;-68
2020/12/28 05:17:05;;;;;;;0.50;0.50;;;;;;;;;;10174734;29;20127;-68
2020/12/28 05:22:07;;;;;;;0.68;0.68;;;;;;;;;;10172938;29;20078;-68
2020/12/28 05:27:16;;;;;;;0.30;0.30;;;;;;;;;;10172469;29;20083;-68
2020/12/28 05:32:19;;;;;;;0.28;0.28;;;;;;;;;;10171562;29;20771;-68
2020/12/28 05:37:21;;;;;;;0.45;0.45;;;;;;;;;;10171642;29;20139;-68
2020/12/28 05:42:23;;;;;;;0.98;0.98;;;;;;;;;;10182124;29;20058;-69
2020/12/28 05:47:27;;;;;;;0.30;0.30;;;;;;;;;;10171211;29;20110;-69
2020/12/28 05:52:29;;;;;;;0.40;0.40;;;;;;;;;;10166833;29;20048;-68
2020/12/28 05:57:31;;;;;;;0.38;0.38;;;;;;;;;;10162744;29;20045;-68
2020/12/28 06:02:35;;;;;;;0.57;0.57;;;;;;;;;;10164057;29;20492;-69
2020/12/28 06:07:37;;;;;;;0.40;0.40;;;;;;;;;;10163064;29;20507;-68
2020/12/28 06:12:39;;;;;;;0.30;0.30;;;;;;;;;;10163803;29;20048;-69
2020/12/28 06:17:42;;;;;;;0.20;0.20;;;;;;;;;;10162390;29;20134;-69
2020/12/28 06:22:44;;;;;;;0.30;0.30;;;;;;;;;;10161687;29;20062;-68
2020/12/28 06:27:46;;;;;;;0.40;0.40;;;;;;;;;;10172936;29;20135;-68
2020/12/28 06:32:49;;;;;;;0.65;0.65;;;;;;;;;;10172685;29;20063;-68
2020/12/28 06:37:53;;;;;;;2.80;1.50;;;;;;;;;;10175383;29;20240;-68
2020/12/28 06:43:05;;;;;;;0.85;0.85;;;;;;;;;;10173754;29;20052;-68
2020/12/28 06:48:17;;;;;;;0.60;0.60;;;;;;;;;;10173550;29;20523;-68
2020/12/28 06:53:20;;;;;;;1.23;1.23;;;;;;;;;;10175482;29;20056;-68
2020/12/28 06:58:22;;;;;;;0.63;0.52;;;;;;;;;;10173835;29;20043;-69
2020/12/28 07:03:24;;;;;;;1.60;1.17;;;;;;;;;;10180366;29;20055;-68
2020/12/28 07:08:26;;;;;;;0.15;0.15;;;;;;;;;;10169690;29;20135;-69
2020/12/28 07:13:28;;;;;;;0.20;0.20;;;;;;;;;;10176521;29;20048;-69
2020/12/28 07:18:31;;;;;;;0.28;0.28;;;;;;;;;;10177525;29;20091;-68
2020/12/28 07:23:33;;;;;;;0.25;0.25;;;;;;;;;;10163413;29;20062;-68
2020/12/28 07:28:36;;;;;;;0.55;0.55;;;;;;;;;;10168961;29;20560;-69
2020/12/28 07:33:45;;;;;;;1.50;1.40;;;;;;;;;;10171990;29;20058;-69
2020/12/28 07:38:47;;;;;;;0.50;0.50;;;;;;;;;;10170568;29;20043;-68
2020/12/28 07:43:50;;;;;;;0.77;0.77;;;;;;;;;;10172526;29;20056;-69
2020/12/28 07:48:53;;;;;;;0.30;0.30;;;;;;;;;;10167469;29;20628;-69
2020/12/28 07:53:58;;;;;;;0.30;0.30;;;;;;;;;;10168919;29;20179;-69
2020/12/28 07:59:05;;;;;;;0.30;0.30;;;;;;;;;;10170854;29;20054;-69
2020/12/28 08:04:10;;;;;;;0.20;0.20;;;;;;;;;;10176854;29;20615;-69
2020/12/28 08:09:12;;;;;;;0.40;0.40;;;;;;;;;;10162506;29;20204;-70
2020/12/28 08:14:13;;;;;;;0.25;0.25;;;;;;;;;;10167191;29;20074;-69
2020/12/28 08:19:24;;;;;;;5.60;1.60;;;;;;;;;;10166437;29;20144;-70
2020/12/28 08:24:26;;;;;;;0.65;0.65;;;;;;;;;;10167376;29;20067;-68
2020/12/28 08:29:30;;;;;;;0.50;0.50;;;;;;;;;;10162249;29;20131;-69
2020/12/28 08:34:34;;;;;;;1.25;1.23;;;;;;;;;;10157523;29;20086;-70
2020/12/28 08:39:36;;;;;;;0.65;0.65;;;;;;;;;;10165570;29;20075;-71
2020/12/28 08:44:39;;;;;;;0.90;0.90;;;;;;;;;;10166020;29;20581;-70
2020/12/28 08:49:42;;;;;;;0.50;0.50;;;;;;;;;;10177561;29;20512;-70
2020/12/28 08:54:51;;;;;;;0.90;0.90;;;;;;;;;;10164419;29;20139;-70
2020/12/28 08:59:53;;;;;;;1.00;1.00;;;;;;;;;;10164829;29;20087;-70
2020/12/28 09:04:56;;;;;;;0.30;0.30;;;;;;;;;;10172191;29;20718;-71
2020/12/28 09:09:58;;;;;;;0.95;0.68;;;;;;;;;;10169919;29;20094;-66
2020/12/28 09:15:00;;;;;;;0.40;0.40;;;;;;;;;;10172783;29;20195;-65
2020/12/28 09:20:02;;;;;;;0.30;0.30;;;;;;;;;;10172939;29;20054;-66
2020/12/28 09:25:04;;;;;;;0.37;0.37;;;;;;;;;;10163946;29;20143;-66
2020/12/28 09:30:07;;;;;;;0.40;0.40;;;;;;;;;;10161055;29;20139;-66
2020/12/28 09:35:10;;;;;;;0.20;0.20;;;;;;;;;;10170025;29;20044;-66
2020/12/28 09:40:11;;;;;;;0.30;0.30;;;;;;;;;;10176452;29;20418;-66
2020/12/28 09:50:34;;;;;;;1.98;1.65;;;;;;;;;;10169106;29;20416;-64
2020/12/28 09:55:35;;;;;;;0.20;0.20;;;;;;;;;;10159850;29;21341;-67
2020/12/28 10:00:37;;;;;;;0.20;0.20;;;;;;;;;;10166849;29;20177;-65
2020/12/28 10:05:40;;;;;;;0.30;0.30;;;;;;;;;;10166429;29;20056;-68
2020/12/28 10:10:44;;;;;;;3.17;2.20;;;;;;;;;;10176075;29;20052;-66
2020/12/28 10:15:46;;;;;;;0.40;0.40;;;;;;;;;;10169669;29;20044;-67
2020/12/28 10:20:48;;;;;;;0.40;0.40;;;;;;;;;;10172895;29;20130;-68
2020/12/28 10:25:50;;;;;;;0.93;0.93;;;;;;;;;;10172604;29;20143;-67
2020/12/28 10:30:52;;;;;;;0.20;0.20;;;;;;;;;;10171539;29;20060;-67
2020/12/28 10:35:54;;;;;;;0.30;0.30;;;;;;;;;;10173173;29;20079;-66
2020/12/28 10:40:56;;;;;;;0.30;0.30;;;;;;;;;;10172700;29;20047;-67
2020/12/28 10:45:58;;;;;;;1.98;1.50;;;;;;;;;;10179717;29;20763;-65
2020/12/28 10:51:00;;;;;;;0.38;0.38;;;;;;;;;;10175180;29;20058;-67
2020/12/28 10:56:02;;;;;;;3.43;1.50;;;;;;;;;;10169700;29;20070;-64
2020/12/28 11:01:05;;;;;;;0.20;0.20;;;;;;;;;;10170984;29;20060;-66
2020/12/28 11:06:08;;;;;;;0.10;0.10;;;;;;;;;;10176816;29;20059;-66
2020/12/28 11:11:09;;;;;;;0.20;0.20;;;;;;;;;;10167967;29;20048;-64
2020/12/28 11:16:11;;;;;;;0.20;0.20;;;;;;;;;;10170590;29;20083;-65
2020/12/28 11:21:14;;;;;;;0.20;0.20;;;;;;;;;;10167732;29;20040;-64
2020/12/28 11:26:18;;;;;;;0.77;0.77;;;;;;;;;;10172656;29;20044;-66
2020/12/28 11:31:20;;;;;;;0.20;0.20;;;;;;;;;;10180384;29;20048;-67
2020/12/28 11:36:23;;;;;;;0.10;0.10;;;;;;;;;;10180001;29;20135;-67
2020/12/28 11:41:27;;;;;;;0.20;0.20;;;;;;;;;;10177070;29;20138;-67
2020/12/28 11:46:28;;;;;;;0.20;0.20;;;;;;;;;;10169366;29;20103;-69
2020/12/28 11:51:31;;;;;;;0.80;0.70;;;;;;;;;;10158502;29;20052;-70
2020/12/28 11:56:35;;;;;;;0.20;0.20;;;;;;;;;;10167226;29;20050;-69
2020/12/28 12:01:37;;;;;;;0.20;0.20;;;;;;;;;;10165125;29;20408;-70
2020/12/28 12:06:40;;;;;;;0.30;0.30;;;;;;;;;;10168577;29;20056;-69
2020/12/28 12:11:43;;;;;;;1.30;1.20;;;;;;;;;;10167089;29;20048;-69
2020/12/28 12:16:44;;;;;;;0.20;0.20;;;;;;;;;;10175806;29;20059;-69
2020/12/28 12:21:47;;;;;;;0.25;0.25;;;;;;;;;;10155899;29;20183;-68
2020/12/28 12:26:49;;;;;;;0.33;0.33;;;;;;;;;;10162171;29;20118;-68
2020/12/28 12:31:51;;;;;;;0.30;0.30;;;;;;;;;;10156067;29;20901;-68
2020/12/28 12:36:53;;;;;;;0.25;0.25;;;;;;;;;;10180475;29;20064;-69
2020/12/28 12:41:55;;;;;;;0.30;0.30;;;;;;;;;;10175119;29;20076;-69
2020/12/28 12:46:57;;;;;;;0.20;0.20;;;;;;;;;;10178970;29;20043;-71
2020/12/28 12:52:15;;;;;;;0.20;0.20;;;;;;;;;;10175081;29;20495;-69
2020/12/28 12:57:17;;;;;;;0.77;0.77;;;;;;;;;;10181883;29;20131;-68
2020/12/28 13:02:19;;;;;;;0.10;0.10;;;;;;;;;;10175280;29;20071;-68
2020/12/28 13:07:22;;;;;;;0.55;0.55;;;;;;;;;;10172145;29;21119;-68
2020/12/28 13:12:23;;;;;;;0.40;0.40;;;;;;;;;;10177740;29;20066;-69
2020/12/28 13:17:25;;;;;;;0.70;0.70;;;;;;;;;;10168062;29;20074;-69
2020/12/28 13:22:28;;;;;;;0.20;0.20;;;;;;;;;;10168061;29;20056;-69
2020/12/28 13:27:30;;;;;;;0.20;0.20;;;;;;;;;;10165063;29;20582;-69
2020/12/28 13:32:31;;;;;;;0.30;0.30;;;;;;;;;;10166705;29;20472;-68
2020/12/28 13:37:34;;;;;;;0.20;0.20;;;;;;;;;;10162977;29;20731;-69
2020/12/28 13:42:36;;;;;;;0.20;0.20;;;;;;;;;;10164308;29;22261;-68
2020/12/28 13:47:38;;;;;;;0.22;0.22;;;;;;;;;;10167143;29;20100;-69
2020/12/28 13:52:40;;;;;;;0.10;0.10;;;;;;;;;;10171159;29;20575;-68
2020/12/28 13:57:43;;;;;;;0.40;0.40;;;;;;;;;;10174884;29;20127;-69
2020/12/28 14:02:44;;;;;;;0.50;0.50;;;;;;;;;;10173063;29;20606;-69
2020/12/28 14:07:47;;;;;;;0.20;0.20;;;;;;;;;;10172086;29;20080;-71
2020/12/28 14:12:49;;;;;;;0.20;0.20;;;;;;;;;;10173036;29;20099;-70
2020/12/28 14:17:50;;;;;;;0.20;0.20;;;;;;;;;;10173397;29;20407;-69
2020/12/28 14:22:53;;;;;;;0.40;0.40;;;;;;;;;;10174812;29;20398;-70
2020/12/28 14:27:54;;;;;;;0.20;0.20;;;;;;;;;;10393308;23;20066;-70
2020/12/28 14:32:56;;;;;;;0.40;0.40;;;;;;;;;;10163936;29;20132;-69
2020/12/28 14:37:59;;;;;;;0.22;0.22;;;;;;;;;;10165160;29;20143;-70
2020/12/28 14:43:00;;;;;;;0.10;0.10;;;;;;;;;;10164714;29;20060;-70
2020/12/28 14:48:02;;;;;;;0.20;0.20;;;;;;;;;;10163867;29;20552;-69
2020/12/28 14:53:06;;;;;;;0.17;0.17;;;;;;;;;;10164903;29;20127;-70
2020/12/28 14:58:08;;;;;;;0.20;0.20;;;;;;;;;;10164235;29;20044;-70
2020/12/28 15:03:09;;;;;;;0.20;0.20;;;;;;;;;;10156375;29;20159;-68
2020/12/28 15:08:12;;;;;;;0.28;0.28;;;;;;;;;;10162458;29;20055;-72
2020/12/28 15:13:14;;;;;;;0.20;0.20;;;;;;;;;;10163764;29;20118;-71
2020/12/28 15:18:16;;;;;;;0.20;0.20;;;;;;;;;;10163858;29;20568;-66
2020/12/28 15:23:18;;;;;;;0.30;0.30;;;;;;;;;;10162779;29;20052;-66
2020/12/28 15:28:20;;;;;;;0.17;0.17;;;;;;;;;;10165409;29;20051;-67
2020/12/28 15:33:22;;;;;;;0.32;0.32;;;;;;;;;;10163675;29;20111;-68
2020/12/28 15:38:24;;;;;;;0.30;0.30;;;;;;;;;;10162260;29;20044;-66
2020/12/28 15:43:26;;;;;;;0.30;0.30;;;;;;;;;;10161137;29;20608;-67
2020/12/28 15:48:27;;;;;;;0.20;0.20;;;;;;;;;;10164764;29;20190;-66
2020/12/28 15:53:30;;;;;;;1.08;0.55;;;;;;;;;;10169273;29;20052;-66
2020/12/28 15:58:32;;;;;;;1.10;1.00;;;;;;;;;;10172698;29;20131;-67
2020/12/28 16:03:33;;;;;;;0.32;0.32;;;;;;;;;;10170849;29;20150;-67
2020/12/28 16:08:36;;;;;;;0.55;0.55;;;;;;;;;;10170916;29;20135;-67
2020/12/28 16:13:38;;;;;;;0.10;0.10;;;;;;;;;;10171815;29;20476;-67
2020/12/28 16:18:40;;;;;;;0.25;0.25;;;;;;;;;;10165209;29;20575;-66
2020/12/28 16:23:42;;;;;;;0.32;0.32;;;;;;;;;;10170162;29;20077;-68
2020/12/28 16:28:44;;;;;;;0.28;0.28;;;;;;;;;;10171201;29;20143;-74
2020/12/28 16:33:46;;;;;;;0.20;0.20;;;;;;;;;;10170739;29;20135;-73
2020/12/28 16:38:50;;;;;;;1.03;1.03;;;;;;;;;;10168734;29;20413;-69
2020/12/28 16:43:51;;;;;;;;;;;;;;;;;;10168129;29;20087;-68
2020/12/28 16:48:54;;;;;;;0.50;0.50;;;;;;;;;;10168471;29;19930;-68
2020/12/28 16:53:57;;;;;;;0.40;0.40;;;;;;;;;;10169767;29;20085;-68
2020/12/28 16:59:00;;;;;;;0.22;0.22;;;;;;;;;;10171377;29;20044;-67
2020/12/28 17:04:02;;;;;;;0.30;0.30;;;;;;;;;;10166333;29;20491;-68
2020/12/28 17:09:06;;;;;;;0.30;0.30;;;;;;;;;;10163730;29;20704;-68
2020/12/28 17:14:08;;;;;;;0.30;0.30;;;;;;;;;;10171504;29;20040;-68
2020/12/28 17:19:11;;;;;;;0.80;0.80;;;;;;;;;;10167317;29;20515;-68
2020/12/28 17:24:15;;;;;;;0.30;0.30;;;;;;;;;;10161716;29;20059;-68
2020/12/28 17:29:17;;;;;;;0.30;0.30;;;;;;;;;;10164727;29;20104;-68
2020/12/28 17:34:19;;;;;;;0.20;0.20;;;;;;;;;;10398584;23;20146;-68
2020/12/28 17:39:22;;;;;;;0.30;0.30;;;;;;;;;;10162985;29;20152;-68
2020/12/28 17:44:24;;;;;;;;;;;;;;;;;;10167679;29;20067;-69
2020/12/28 17:49:26;;;;;;;0.50;0.50;;;;;;;;;;10161034;29;20438;-70
2020/12/28 17:54:29;;;;;;;0.20;0.20;;;;;;;;;;10165134;29;20485;-71
2020/12/28 17:59:32;;;;;;;0.95;0.90;;;;;;;;;;10167721;29;20107;-71
2020/12/28 18:04:33;;;;;;;;;;;;;;;;;;10164749;29;20064;-74
2020/12/28 18:09:36;;;;;;;0.30;0.30;;;;;;;;;;10167675;29;20638;-75
2020/12/28 18:14:38;;;;;;;0.50;0.50;;;;;;;;;;10165138;29;20044;-71
2020/12/28 18:19:39;;;;;;;0.20;0.20;;;;;;;;;;10165166;29;20067;-71
2020/12/28 18:24:42;;;;;;;0.30;0.30;;;;;;;;;;10165488;29;20052;-70
2020/12/28 18:29:43;;;;;;;1.23;1.23;;;;;;;;;;10166143;29;20059;-74
2020/12/28 18:34:45;;;;;;;0.20;0.20;;;;;;;;;;10164859;29;20590;-72
2020/12/28 18:39:48;;;;;;;0.30;0.30;;;;;;;;;;10164988;29;20056;-73
2020/12/28 18:44:49;;;;;;;0.30;0.30;;;;;;;;;;10166155;29;20560;-72
2020/12/28 18:49:51;;;;;;;0.40;0.40;;;;;;;;;;10163786;29;20528;-71
2020/12/28 18:54:54;;;;;;;0.30;0.30;;;;;;;;;;10163139;29;20048;-69
2020/12/28 18:59:56;;;;;;;0.40;0.40;;;;;;;;;;10166632;29;20084;-68
2020/12/28 19:04:58;;;;;;;0.30;0.30;;;;;;;;;;10173066;29;20555;-71
2020/12/28 19:10:01;;;;;;;0.30;0.30;;;;;;;;;;10167210;29;20052;-70
2020/12/28 19:15:03;;;;;;;0.30;0.30;;;;;;;;;;10165971;29;20477;-70
2020/12/28 19:20:04;;;;;;;0.20;0.20;;;;;;;;;;10166735;29;20106;-72
2020/12/28 19:25:08;;;;;;;0.35;0.35;;;;;;;;;;10166640;29;20091;-71
2020/12/28 19:30:10;;;;;;;1.17;1.17;;;;;;;;;;10165940;29;20048;-71
2020/12/28 19:35:11;;;;;;;0.20;0.20;;;;;;;;;;10161685;29;20424;-69
2020/12/28 19:40:16;;;;;;;0.40;0.40;;;;;;;;;;10168048;29;20144;-69
2020/12/28 19:45:18;;;;;;;2.28;1.05;;;;;;;;;;10166579;29;20052;-68
2020/12/28 19:50:20;;;;;;;0.30;0.30;;;;;;;;;;10164796;29;20086;-71
2020/12/28 19:55:22;;;;;;;0.27;0.27;;;;;;;;;;10165652;29;20056;-68
2020/12/28 20:00:24;;;;;;;1.60;1.43;;;;;;;;;;10165786;29;20076;-70
2020/12/28 20:05:26;;;;;;;0.30;0.30;;;;;;;;;;10164228;29;20056;-67
2020/12/28 20:10:29;;;;;;;0.30;0.30;;;;;;;;;;10161946;29;20047;-69
2020/12/28 20:15:30;;;;;;;0.30;0.30;;;;;;;;;;10162934;29;20139;-76
2020/12/28 20:20:32;;;;;;;0.30;0.30;;;;;;;;;;10160465;29;20135;-74
2020/12/28 20:25:35;;;;;;;0.20;0.20;;;;;;;;;;10163050;29;20111;-75
2020/12/28 20:30:36;;;;;;;2.10;2.00;;;;;;;;;;10164210;29;20044;-74
2020/12/28 20:35:38;;;;;;;0.25;0.25;;;;;;;;;;10165980;29;20067;-73
2020/12/28 20:40:43;;;;;;;0.63;0.63;;;;;;;;;;10169633;29;20048;-75
2020/12/28 20:45:45;;;;;;;0.40;0.40;;;;;;;;;;10169803;29;20080;-74
2020/12/28 20:50:48;;;;;;;0.30;0.30;;;;;;;;;;10170348;29;20151;-74
2020/12/28 20:55:50;;;;;;;1.85;0.95;;;;;;;;;;10169065;29;20067;-74
2020/12/28 21:00:52;;;;;;;0.40;0.40;;;;;;;;;;10168996;29;20048;-75
2020/12/28 21:05:53;;;;;;;0.10;0.10;;;;;;;;;;10169501;29;20051;-75
2020/12/28 21:10:56;;;;;;;0.45;0.45;;;;;;;;;;10169475;29;20139;-73
2020/12/28 21:15:58;;;;;;;0.50;0.50;;;;;;;;;;10169990;29;20048;-74
2020/12/28 21:20:59;;;;;;;0.60;0.60;;;;;;;;;;10171551;29;20806;-73
2020/12/28 21:26:02;;;;;;;6.03;2.55;;;;;;;;;;10167364;29;20055;-74
2020/12/28 21:31:04;;;;;;;0.30;0.30;;;;;;;;;;10167311;29;20040;-70
2020/12/28 21:36:05;;;;;;;0.65;0.65;;;;;;;;;;10167627;29;20382;-70
2020/12/28 21:41:08;;;;;;;0.60;0.60;;;;;;;;;;10169952;29;20142;-70
2020/12/28 21:46:10;;;;;;;3.13;1.73;;;;;;;;;;10167931;29;20075;-71
2020/12/28 21:51:12;;;;;;;1.00;0.82;;;;;;;;;;10169190;29;20060;-69
2020/12/28 21:56:19;;;;;;;0.38;0.38;;;;;;;;;;10167469;29;20465;-68
2020/12/28 22:01:22;;;;;;;0.20;0.20;;;;;;;;;;10169007;29;20048;-69
2020/12/28 22:06:24;;;;;;;0.40;0.40;;;;;;;;;;10167310;29;20140;-69
2020/12/28 22:11:26;;;;;;;0.32;0.32;;;;;;;;;;10169175;29;20179;-68
2020/12/28 22:16:28;;;;;;;1.27;1.17;;;;;;;;;;10168108;29;20436;-68
2020/12/28 22:21:30;;;;;;;1.45;1.35;;;;;;;;;;10167346;29;20140;-69
2020/12/28 22:26:32;;;;;;;0.43;0.43;;;;;;;;;;10168437;29;20088;-69
2020/12/28 22:31:34;;;;;;;1.53;1.43;;;;;;;;;;10164633;29;20460;-67
2020/12/28 22:36:35;;;;;;;1.85;1.75;;;;;;;;;;10165486;29;20052;-69
2020/12/28 22:41:38;;;;;;;0.30;0.30;;;;;;;;;;10165332;29;20144;-68
2020/12/28 22:46:43;;;;;;;0.73;0.73;;;;;;;;;;10147964;29;20060;-69
2020/12/28 22:51:45;;;;;;;0.50;0.50;;;;;;;;;;10167361;29;20139;-69
2020/12/28 22:56:48;;;;;;;0.68;0.68;;;;;;;;;;10167044;29;20040;-68
2020/12/28 23:01:50;;;;;;;0.30;0.30;;;;;;;;;;10167454;29;20139;-70
2020/12/28 23:06:51;;;;;;;0.80;0.80;;;;;;;;;;10164381;29;20052;-68
2020/12/28 23:11:54;;;;;;;0.77;0.75;;;;;;;;;;10166112;29;20150;-69
2020/12/28 23:16:56;;;;;;;1.27;1.15;;;;;;;;;;10165597;29;20138;-69
2020/12/28 23:21:58;;;;;;;2.08;0.82;;;;;;;;;;10159750;29;20044;-70
2020/12/28 23:27:01;;;;;;;0.28;0.28;;;;;;;;;;10151637;29;20071;-70
2020/12/28 23:32:02;;;;;;;0.20;0.20;;;;;;;;;;10161267;29;20068;-69
2020/12/28 23:37:04;;;;;;;0.30;0.30;;;;;;;;;;10163836;29;20058;-70
2020/12/28 23:42:06;;;;;;;0.20;0.20;;;;;;;;;;10163084;29;20052;-71
2020/12/28 23:47:08;;;;;;;0.70;0.70;;;;;;;;;;10162356;29;20052;-70
2020/12/28 23:52:10;;;;;;;3.35;1.27;;;;;;;;;;10163330;29;20139;-70
2020/12/28 23:57:12;;;;;;;0.43;0.43;;;;;;;;;;10160649;29;20052;-69
